Mc Cune, Kansas
Current Conditions -  °F | °C
As of 9:35 PM on Sunday 21 Dec 2014 (Local Time) from KPTS Reporting Station
Overcast Overcast  
Wind Chill: 41°   Ceiling: 2300
Heat Index: 46°   Visibility: 10mi
Dew Point: 42°   Wind: 9mph
Humidity: 86%   Direction: 160°SSE
Pressure: 29.79"   Gusts: NA
Location:  37.3318°N, 95.0213°W
Report Text: KPTS 220335Z AUTO 16008KT 10SM OVC023 08/06 A2979 RMK AO2 T00770055
Loading
Personal Weather Stations






























Interactive Weather Map New forecast layout! Learn more

10-Day Weather Forecast

Advertisements
Track Severe Weather on mobile